createdAt,value
2024-02-22T00:02:09.882Z,9.72
2024-02-22T00:04:37.270Z,9.69
2024-02-22T00:07:04.754Z,9.72
2024-02-22T00:09:33.020Z,9.73
2024-02-22T00:12:00.418Z,9.73
2024-02-22T00:14:28.374Z,9.72
2024-02-22T00:16:56.025Z,9.69
2024-02-22T00:19:23.263Z,9.70
2024-02-22T00:21:50.668Z,9.69
2024-02-22T00:24:17.886Z,9.71
2024-02-22T00:26:46.395Z,9.66
2024-02-22T00:29:13.674Z,9.65
2024-02-22T00:31:40.896Z,9.71
2024-02-22T00:34:08.048Z,9.75
2024-02-22T00:36:44.617Z,9.77
2024-02-22T00:39:11.890Z,9.76
2024-02-22T00:41:39.276Z,9.79
2024-02-22T00:44:06.524Z,9.79
2024-02-22T00:46:34.719Z,9.83
2024-02-22T00:49:02.301Z,9.84
2024-02-22T00:51:29.630Z,9.85
2024-02-22T00:53:56.737Z,9.83
2024-02-22T00:56:23.869Z,9.83
2024-02-22T00:58:51.140Z,9.82
2024-02-22T01:01:18.674Z,9.80
2024-02-22T01:03:45.908Z,9.77
2024-02-22T01:06:15.078Z,9.75
2024-02-22T01:08:42.539Z,9.79
2024-02-22T01:11:09.751Z,9.75
2024-02-22T01:13:36.976Z,9.73
2024-02-22T01:16:04.465Z,9.70
2024-02-22T01:18:31.788Z,9.68
2024-02-22T01:20:58.978Z,9.60
2024-02-22T01:23:26.247Z,9.57
2024-02-22T01:25:53.458Z,9.48
2024-02-22T01:28:21.646Z,9.46
2024-02-22T01:30:48.867Z,9.42
2024-02-22T01:33:16.181Z,9.40
2024-02-22T01:35:43.562Z,9.37
2024-02-22T01:38:11.042Z,9.34
2024-02-22T01:40:38.386Z,9.28
2024-02-22T01:43:05.524Z,9.24
2024-02-22T01:45:32.655Z,9.19
2024-02-22T01:47:59.991Z,9.12
2024-02-22T01:50:27.301Z,9.04
2024-02-22T01:52:54.577Z,9.01
2024-02-22T01:55:21.968Z,8.94
2024-02-22T01:57:50.553Z,8.90
2024-02-22T02:00:24.517Z,8.82
2024-02-22T02:02:52.003Z,8.80
2024-02-22T02:05:19.580Z,8.76
2024-02-22T02:07:46.961Z,8.71
2024-02-22T02:10:14.336Z,8.65
2024-02-22T02:12:42.072Z,8.62
2024-02-22T02:15:09.542Z,8.57
2024-02-22T02:17:37.208Z,8.57
2024-02-22T02:20:06.544Z,8.55
2024-02-22T02:22:55.866Z,8.53
2024-02-22T02:25:23.865Z,8.46
2024-02-22T02:27:54.216Z,8.36
2024-02-22T02:30:21.731Z,8.32
2024-02-22T02:32:49.093Z,8.22
2024-02-22T02:35:16.268Z,8.17
2024-02-22T02:37:43.651Z,8.13
2024-02-22T02:40:11.313Z,8.11
2024-02-22T02:42:38.570Z,8.03
2024-02-22T02:45:06.038Z,8.00
2024-02-22T02:47:34.731Z,7.95
2024-02-22T02:50:07.941Z,7.90
2024-02-22T02:52:35.235Z,7.91
2024-02-22T02:55:02.525Z,7.87
2024-02-22T02:57:29.776Z,7.82
2024-02-22T02:59:57.034Z,7.85
2024-02-22T03:02:24.403Z,7.86
2024-02-22T03:04:52.060Z,7.87
2024-02-22T03:07:19.574Z,7.86
2024-02-22T03:09:46.782Z,7.85
2024-02-22T03:12:14.160Z,7.86
2024-02-22T03:14:41.751Z,7.88
2024-02-22T03:17:09.130Z,7.92
2024-02-22T03:19:36.725Z,7.96
2024-02-22T03:22:04.321Z,7.97
2024-02-22T03:24:31.661Z,7.99
2024-02-22T03:26:59.110Z,7.98
2024-02-22T03:29:27.350Z,8.01
2024-02-22T03:31:54.938Z,8.02
2024-02-22T03:34:22.559Z,8.00
2024-02-22T03:36:49.718Z,8.04
2024-02-22T03:39:18.169Z,8.04
2024-02-22T03:41:45.541Z,8.03
2024-02-22T03:44:16.257Z,8.03
2024-02-22T03:46:50.424Z,8.05
2024-02-22T03:49:17.910Z,8.04
2024-02-22T03:51:45.175Z,8.03
2024-02-22T03:54:12.524Z,8.05
2024-02-22T03:56:41.710Z,8.07
2024-02-22T03:59:08.901Z,8.10
2024-02-22T04:01:37.428Z,8.12
2024-02-22T04:04:05.373Z,8.12
2024-02-22T04:06:33.831Z,8.15
2024-02-22T04:09:03.247Z,8.17
2024-02-22T04:11:30.616Z,8.20
2024-02-22T04:13:57.823Z,8.21
2024-02-22T04:16:25.173Z,8.24
2024-02-22T04:18:53.291Z,8.28
2024-02-22T04:21:20.779Z,8.28
2024-02-22T04:23:48.128Z,8.30
2024-02-22T04:26:15.307Z,8.33
2024-02-22T04:28:42.733Z,8.35
2024-02-22T04:31:09.823Z,8.36
2024-02-22T04:33:36.950Z,8.37
2024-02-22T04:36:04.420Z,8.35
2024-02-22T04:38:31.749Z,8.33
2024-02-22T04:40:59.045Z,8.34
2024-02-22T04:43:26.199Z,8.38
2024-02-22T04:45:53.387Z,8.41
2024-02-22T04:48:20.541Z,8.42
2024-02-22T04:50:48.287Z,8.45
2024-02-22T04:53:15.487Z,8.47
2024-02-22T04:55:42.785Z,8.45
2024-02-22T04:58:09.952Z,8.43
2024-02-22T05:00:37.182Z,8.44
2024-02-22T05:03:04.789Z,8.43
2024-02-22T05:05:32.209Z,8.42
2024-02-22T05:07:59.580Z,8.40
2024-02-22T05:10:26.737Z,8.38
2024-02-22T05:12:53.855Z,8.38
2024-02-22T05:15:21.037Z,8.36
2024-02-22T05:17:49.466Z,8.31
2024-02-22T05:20:17.191Z,8.26
2024-02-22T05:22:44.513Z,8.20
2024-02-22T05:25:11.735Z,8.14
2024-02-22T05:27:40.725Z,8.07
2024-02-22T05:30:08.784Z,8.01
2024-02-22T05:32:35.969Z,7.95
2024-02-22T05:35:03.147Z,7.90
2024-02-22T05:37:35.384Z,7.84
2024-02-22T05:40:03.753Z,7.81
2024-02-22T05:42:32.286Z,7.75
2024-02-22T05:44:59.348Z,7.72
2024-02-22T05:47:26.583Z,7.71
2024-02-22T05:49:53.861Z,7.68
2024-02-22T05:52:21.041Z,7.64
2024-02-22T05:54:48.436Z,7.61
2024-02-22T05:57:15.564Z,7.61
2024-02-22T05:59:42.728Z,7.58
2024-02-22T06:02:10.060Z,7.55
2024-02-22T06:04:37.418Z,7.53
2024-02-22T06:07:04.923Z,7.52
2024-02-22T06:09:32.085Z,7.48
2024-02-22T06:11:59.336Z,7.46
2024-02-22T06:14:26.487Z,7.46
2024-02-22T06:16:53.624Z,7.45
2024-02-22T06:19:20.840Z,7.44
2024-02-22T06:21:48.073Z,7.43
2024-02-22T06:24:15.209Z,7.43
2024-02-22T06:26:42.937Z,7.43
2024-02-22T06:29:10.082Z,7.42
2024-02-22T06:31:37.304Z,7.41
2024-02-22T06:34:04.554Z,7.42
2024-02-22T06:36:31.715Z,7.41
2024-02-22T06:38:58.819Z,7.42
2024-02-22T06:41:26.299Z,7.42
2024-02-22T06:43:55.590Z,7.42
2024-02-22T06:46:25.337Z,7.41
2024-02-22T06:48:53.033Z,7.40
2024-02-22T06:51:22.247Z,7.38
2024-02-22T06:53:49.441Z,7.37
2024-02-22T06:56:17.301Z,7.36
2024-02-22T06:58:44.470Z,7.37
2024-02-22T07:01:11.684Z,7.36
2024-02-22T07:03:38.778Z,7.37
2024-02-22T07:06:06.470Z,7.38
2024-02-22T07:08:33.559Z,7.40
2024-02-22T07:11:00.918Z,7.42
2024-02-22T07:13:29.714Z,7.45
2024-02-22T07:15:56.828Z,7.48
2024-02-22T07:18:24.094Z,7.51
2024-02-22T07:20:51.273Z,7.53
2024-02-22T07:23:18.963Z,7.59
2024-02-22T07:25:46.086Z,7.63
2024-02-22T07:28:15.035Z,7.67
2024-02-22T07:30:42.933Z,7.72
2024-02-22T07:33:10.344Z,7.75
2024-02-22T07:35:38.208Z,7.79
2024-02-22T07:38:05.759Z,7.81
2024-02-22T07:40:32.990Z,7.85
2024-02-22T07:43:00.296Z,7.87
2024-02-22T07:45:30.100Z,7.91
2024-02-22T07:47:57.251Z,7.94
2024-02-22T07:50:24.820Z,7.97
2024-02-22T07:52:52.165Z,7.98
2024-02-22T07:55:19.334Z,8.03
2024-02-22T07:57:46.576Z,8.05
2024-02-22T08:00:14.114Z,8.09
2024-02-22T08:02:43.078Z,8.11
2024-02-22T08:05:11.260Z,8.15
2024-02-22T08:07:39.570Z,8.20
2024-02-22T08:10:07.721Z,8.24
2024-02-22T08:12:34.819Z,8.28
2024-02-22T08:15:05.326Z,8.28
2024-02-22T08:17:33.206Z,8.29
2024-02-22T08:20:01.171Z,8.31
2024-02-22T08:22:28.559Z,8.35
2024-02-22T08:24:55.631Z,8.41
2024-02-22T08:27:22.793Z,8.46
2024-02-22T08:29:52.238Z,8.50
2024-02-22T08:32:19.766Z,8.52
2024-02-22T08:34:47.042Z,8.57
2024-02-22T08:37:14.170Z,8.59
2024-02-22T08:39:41.371Z,8.60
2024-02-22T08:42:08.598Z,8.62
2024-02-22T08:44:35.754Z,8.61
2024-02-22T08:47:04.969Z,8.62
2024-02-22T08:49:34.037Z,8.62
2024-02-22T08:52:05.166Z,8.63
2024-02-22T08:54:32.389Z,8.64
2024-02-22T08:56:59.975Z,8.64
2024-02-22T08:59:27.202Z,8.67
2024-02-22T09:01:54.849Z,8.68
2024-02-22T09:04:27.846Z,8.67
2024-02-22T09:06:55.022Z,8.69
2024-02-22T09:09:22.225Z,8.70
2024-02-22T09:11:50.141Z,8.73
2024-02-22T09:14:37.542Z,8.75
2024-02-22T09:17:06.017Z,8.79
2024-02-22T09:19:33.484Z,8.82
2024-02-22T09:22:01.711Z,8.82
2024-02-22T09:24:29.282Z,8.84
2024-02-22T09:26:57.052Z,8.87
2024-02-22T09:29:30.394Z,8.92
2024-02-22T09:31:57.706Z,8.96
2024-02-22T09:34:24.962Z,8.98
2024-02-22T09:36:52.213Z,9.01
2024-02-22T09:39:21.141Z,9.01
2024-02-22T09:41:48.344Z,9.06
2024-02-22T09:44:15.837Z,9.09
2024-02-22T09:46:43.043Z,9.15
2024-02-22T09:49:10.570Z,9.20
2024-02-22T09:51:37.997Z,9.24
2024-02-22T09:54:05.143Z,9.29
2024-02-22T09:56:35.072Z,9.36
2024-02-22T09:59:02.225Z,9.43
2024-02-22T10:01:30.213Z,9.45
2024-02-22T10:03:57.277Z,9.44
2024-02-22T10:06:25.307Z,9.46
2024-02-22T10:08:58.098Z,9.49
2024-02-22T10:11:25.476Z,9.52
2024-02-22T10:14:00.276Z,9.59
2024-02-22T10:16:28.437Z,9.62
2024-02-22T10:19:02.062Z,9.68
2024-02-22T10:21:30.493Z,9.72
2024-02-22T10:23:59.338Z,9.76
2024-02-22T10:26:26.965Z,9.77
2024-02-22T10:28:58.350Z,9.74
2024-02-22T10:31:25.571Z,9.75
2024-02-22T10:33:55.221Z,9.78
2024-02-22T10:36:22.793Z,9.78
2024-02-22T10:38:52.511Z,9.82
2024-02-22T10:41:20.008Z,9.83
2024-02-22T10:43:49.497Z,9.84
2024-02-22T10:46:18.670Z,9.91
2024-02-22T10:48:47.083Z,9.96
2024-02-22T10:51:15.452Z,10.00
2024-02-22T10:53:43.396Z,10.07
2024-02-22T10:56:11.260Z,10.13
2024-02-22T10:58:40.137Z,10.18
2024-02-22T11:01:08.879Z,10.24
2024-02-22T11:03:37.133Z,10.28
2024-02-22T11:06:05.124Z,10.34
2024-02-22T11:08:32.396Z,10.36
2024-02-22T11:11:09.422Z,10.45
2024-02-22T11:13:38.173Z,10.52
2024-02-22T11:16:17.902Z,10.61
2024-02-22T11:18:47.590Z,10.66
2024-02-22T11:21:15.054Z,10.71
2024-02-22T11:23:42.949Z,10.75
2024-02-22T11:26:10.215Z,10.80
2024-02-22T11:28:37.392Z,10.82
2024-02-22T11:31:12.366Z,10.83
2024-02-22T11:33:40.193Z,10.82
2024-02-22T11:36:07.663Z,10.83
2024-02-22T11:38:34.744Z,10.85
2024-02-22T11:41:06.386Z,10.81
2024-02-22T11:43:33.588Z,10.81
2024-02-22T11:46:06.033Z,10.83
2024-02-22T11:48:33.355Z,10.79
2024-02-22T11:51:00.621Z,10.78
2024-02-22T11:53:27.763Z,10.82
2024-02-22T11:55:54.947Z,10.89
2024-02-22T11:58:22.334Z,10.89
2024-02-22T12:00:49.588Z,10.91
2024-02-22T12:03:16.805Z,10.86
2024-02-22T12:05:44.193Z,10.86
2024-02-22T12:08:12.617Z,10.87
2024-02-22T12:10:39.825Z,10.88
2024-02-22T12:13:07.217Z,10.86
2024-02-22T12:15:34.733Z,10.83
2024-02-22T12:18:01.854Z,10.83
2024-02-22T12:20:29.154Z,10.83
2024-02-22T12:22:56.629Z,10.83
2024-02-22T12:25:26.645Z,10.83
2024-02-22T12:27:54.563Z,10.86
2024-02-22T12:30:23.098Z,10.85
2024-02-22T12:32:51.146Z,10.86
2024-02-22T12:35:19.614Z,10.84
2024-02-22T12:37:48.072Z,10.85
2024-02-22T12:40:15.179Z,10.83
2024-02-22T12:42:42.327Z,10.85
2024-02-22T12:45:10.198Z,10.90
2024-02-22T12:47:37.693Z,10.91
2024-02-22T12:50:05.286Z,10.93
2024-02-22T12:52:32.846Z,10.95
2024-02-22T12:55:01.253Z,10.94
2024-02-22T12:57:28.436Z,10.97
2024-02-22T12:59:56.732Z,11.05
2024-02-22T13:02:24.638Z,11.10
2024-02-22T13:04:52.151Z,11.20
2024-02-22T13:07:19.479Z,11.29
2024-02-22T13:09:46.941Z,11.36
2024-02-22T13:12:14.843Z,11.43
2024-02-22T13:14:42.263Z,11.47
2024-02-22T13:17:09.904Z,11.53
2024-02-22T13:19:37.209Z,11.56
2024-02-22T13:22:04.369Z,11.59
2024-02-22T13:24:33.636Z,11.62
2024-02-22T13:27:01.144Z,11.65
2024-02-22T13:29:28.630Z,11.70
2024-02-22T13:31:59.165Z,11.73
2024-02-22T13:34:26.631Z,11.75
2024-02-22T13:36:55.749Z,11.78
2024-02-22T13:39:23.876Z,11.83
2024-02-22T13:41:51.080Z,11.84
2024-02-22T13:44:23.415Z,11.88
2024-02-22T13:46:57.469Z,11.90
2024-02-22T13:49:24.724Z,11.84
2024-02-22T13:51:57.811Z,11.81
2024-02-22T13:54:28.310Z,11.75
2024-02-22T13:56:57.166Z,11.66
2024-02-22T13:59:24.460Z,11.70
2024-02-22T14:01:51.706Z,11.70
2024-02-22T14:04:18.994Z,11.71
2024-02-22T14:06:47.217Z,11.68
2024-02-22T14:09:17.069Z,11.71
2024-02-22T14:11:44.440Z,11.74
2024-02-22T14:14:18.163Z,11.77
2024-02-22T14:16:46.513Z,11.78
2024-02-22T14:19:15.584Z,11.79
2024-02-22T14:21:42.867Z,11.77
2024-02-22T14:24:11.006Z,11.74
2024-02-22T14:26:38.409Z,11.78
2024-02-22T14:29:07.322Z,11.76
2024-02-22T14:31:34.429Z,11.74
2024-02-22T14:34:01.609Z,11.72
2024-02-22T14:36:28.762Z,11.70
2024-02-22T14:38:56.002Z,11.69
2024-02-22T14:41:24.174Z,11.71
2024-02-22T14:43:54.614Z,11.71
2024-02-22T14:46:21.856Z,11.70
2024-02-22T14:48:49.018Z,11.68
2024-02-22T14:51:16.173Z,11.66
2024-02-22T14:53:43.336Z,11.65
2024-02-22T14:56:16.491Z,11.61
2024-02-22T14:58:46.651Z,11.60
2024-02-22T15:01:13.922Z,11.56
2024-02-22T15:03:41.102Z,11.54
2024-02-22T15:06:10.736Z,11.54
2024-02-22T15:08:43.606Z,11.50
2024-02-22T15:11:11.138Z,11.50
2024-02-22T15:13:40.565Z,11.50
2024-02-22T15:16:07.902Z,11.51
2024-02-22T15:18:38.624Z,11.50
2024-02-22T15:21:07.738Z,11.45
2024-02-22T15:23:37.465Z,11.46
2024-02-22T15:26:05.217Z,11.48
2024-02-22T15:28:32.412Z,11.42
2024-02-22T15:31:00.764Z,11.40
2024-02-22T15:33:28.490Z,11.32
2024-02-22T15:35:55.954Z,11.32
2024-02-22T15:38:24.488Z,11.30
2024-02-22T15:40:51.729Z,11.23
2024-02-22T15:43:19.920Z,11.20
2024-02-22T15:45:47.090Z,11.15
2024-02-22T15:48:14.336Z,11.11
2024-02-22T15:50:41.439Z,11.08
2024-02-22T15:53:09.878Z,11.07
2024-02-22T15:55:37.958Z,11.06
2024-02-22T15:58:05.343Z,11.04
2024-02-22T16:00:32.947Z,11.02
2024-02-22T16:03:00.065Z,10.99
2024-02-22T16:05:27.289Z,10.96
2024-02-22T16:07:54.528Z,10.92
2024-02-22T16:10:21.956Z,10.94
2024-02-22T16:12:49.165Z,10.91
2024-02-22T16:15:16.519Z,10.91
2024-02-22T16:17:43.857Z,10.91
2024-02-22T16:20:12.019Z,10.88
2024-02-22T16:22:39.413Z,10.88
2024-02-22T16:25:07.984Z,10.86
2024-02-22T16:27:35.829Z,10.86
2024-02-22T16:30:02.916Z,10.84
2024-02-22T16:32:30.238Z,10.82
2024-02-22T16:34:57.581Z,10.83
2024-02-22T16:37:24.773Z,10.81
2024-02-22T16:39:52.300Z,10.83
2024-02-22T16:42:19.436Z,10.85
2024-02-22T16:44:47.101Z,10.83
2024-02-22T16:47:19.100Z,10.84
2024-02-22T16:49:46.669Z,10.83
2024-02-22T16:52:13.884Z,10.84
2024-02-22T16:54:43.316Z,10.86
2024-02-22T16:57:10.617Z,10.90
2024-02-22T16:59:37.704Z,10.92
2024-02-22T17:02:05.039Z,10.92
2024-02-22T17:04:32.299Z,10.93
2024-02-22T17:07:00.213Z,10.93
2024-02-22T17:09:28.009Z,10.94
2024-02-22T17:11:55.745Z,10.93
2024-02-22T17:14:23.868Z,10.94
2024-02-22T17:16:51.221Z,10.96
2024-02-22T17:19:18.772Z,10.95
2024-02-22T17:21:54.079Z,10.99
2024-02-22T17:24:22.803Z,10.97
2024-02-22T17:26:50.165Z,10.96
2024-02-22T17:29:17.613Z,10.97
2024-02-22T17:31:44.865Z,10.99
2024-02-22T17:34:12.146Z,10.96
2024-02-22T17:36:39.729Z,10.95
2024-02-22T17:39:07.093Z,10.99
2024-02-22T17:41:34.214Z,11.01
2024-02-22T17:44:03.073Z,11.01
2024-02-22T17:46:30.275Z,10.99
2024-02-22T17:48:57.432Z,11.01
2024-02-22T17:51:24.530Z,11.01
2024-02-22T17:53:51.711Z,11.00
2024-02-22T17:56:20.536Z,11.01
2024-02-22T17:58:54.831Z,11.01
2024-02-22T18:01:24.801Z,11.04
2024-02-22T18:03:51.952Z,11.04
2024-02-22T18:06:19.375Z,11.02
2024-02-22T18:08:46.987Z,11.00
2024-02-22T18:11:14.260Z,10.99
2024-02-22T18:13:41.578Z,10.94
2024-02-22T18:16:11.657Z,10.92
2024-02-22T18:18:41.535Z,10.92
2024-02-22T18:21:12.519Z,10.90
2024-02-22T18:23:46.555Z,10.89
2024-02-22T18:26:15.007Z,10.88
2024-02-22T18:28:44.539Z,10.86
2024-02-22T18:31:11.876Z,10.88
2024-02-22T18:33:39.174Z,10.86
2024-02-22T18:36:08.336Z,10.85
2024-02-22T18:38:35.528Z,10.85
2024-02-22T18:41:03.681Z,10.83
2024-02-22T18:43:30.830Z,10.81
2024-02-22T18:45:58.022Z,10.79
2024-02-22T18:48:25.389Z,10.80
2024-02-22T18:50:52.784Z,10.82
2024-02-22T18:53:19.987Z,10.81
2024-02-22T18:55:47.254Z,10.83
2024-02-22T18:58:14.469Z,10.85
2024-02-22T19:00:41.690Z,10.86
2024-02-22T19:03:11.724Z,10.87
2024-02-22T19:05:40.369Z,10.88
2024-02-22T19:08:08.396Z,10.91
2024-02-22T19:10:36.119Z,10.91
2024-02-22T19:13:03.915Z,10.92
2024-02-22T19:15:31.196Z,10.93
2024-02-22T19:17:59.368Z,10.94
2024-02-22T19:20:26.590Z,10.94
2024-02-22T19:22:53.942Z,10.95
2024-02-22T19:25:21.128Z,10.93
2024-02-22T19:27:48.833Z,10.94
2024-02-22T19:30:16.547Z,10.92
2024-02-22T19:32:45.053Z,10.91
2024-02-22T19:35:19.089Z,10.94
2024-02-22T19:37:46.930Z,10.92
2024-02-22T19:40:15.368Z,10.93
2024-02-22T19:42:43.043Z,10.91
2024-02-22T19:45:10.407Z,10.92
2024-02-22T19:47:37.581Z,10.90
2024-02-22T19:50:05.385Z,10.89
2024-02-22T19:52:32.532Z,10.82
2024-02-22T19:54:59.669Z,10.78
2024-02-22T19:57:27.291Z,10.71
2024-02-22T19:59:55.360Z,10.63
2024-02-22T20:02:22.881Z,10.59
2024-02-22T20:04:52.244Z,10.53
2024-02-22T20:07:20.559Z,10.51
2024-02-22T20:09:47.783Z,10.49
2024-02-22T20:12:16.043Z,10.48
2024-02-22T20:14:43.266Z,10.43
2024-02-22T20:17:10.461Z,10.41
2024-02-22T20:19:37.668Z,10.38
2024-02-22T20:22:04.988Z,10.38
2024-02-22T20:24:32.438Z,10.38
2024-02-22T20:27:00.418Z,10.41
2024-02-22T20:29:27.584Z,10.43
2024-02-22T20:31:54.707Z,10.46
2024-02-22T20:34:22.066Z,10.45
2024-02-22T20:36:49.469Z,10.47
2024-02-22T20:39:16.604Z,10.50
2024-02-22T20:41:43.719Z,10.51
2024-02-22T20:44:11.378Z,10.52
2024-02-22T20:46:38.582Z,10.56
2024-02-22T20:49:05.809Z,10.58
2024-02-22T20:51:33.426Z,10.60
2024-02-22T20:54:00.948Z,10.63
2024-02-22T20:56:30.737Z,10.64
2024-02-22T20:58:59.659Z,10.66
2024-02-22T21:01:27.056Z,10.70
2024-02-22T21:03:54.209Z,10.74
2024-02-22T21:06:22.202Z,10.75
2024-02-22T21:08:50.122Z,10.76
2024-02-22T21:11:17.913Z,10.74
2024-02-22T21:13:45.774Z,10.75
2024-02-22T21:16:14.405Z,10.74
2024-02-22T21:18:42.338Z,10.75
2024-02-22T21:21:09.573Z,10.75
2024-02-22T21:23:38.219Z,10.76
2024-02-22T21:26:05.435Z,10.75
2024-02-22T21:28:32.674Z,10.79
2024-02-22T21:30:59.892Z,10.78
2024-02-22T21:33:27.269Z,10.79
2024-02-22T21:35:54.951Z,10.78
2024-02-22T21:38:22.280Z,10.80
2024-02-22T21:40:49.552Z,10.81
2024-02-22T21:43:16.702Z,10.82
2024-02-22T21:45:44.102Z,10.84
2024-02-22T21:48:12.033Z,10.83
2024-02-22T21:50:39.597Z,10.84
2024-02-22T21:53:08.514Z,10.88
2024-02-22T21:55:36.137Z,10.91
2024-02-22T21:58:04.031Z,10.92
2024-02-22T22:00:31.184Z,10.93
2024-02-22T22:02:58.304Z,10.97
2024-02-22T22:05:25.516Z,11.00
2024-02-22T22:07:52.876Z,11.01
2024-02-22T22:10:20.074Z,11.04
2024-02-22T22:12:47.552Z,11.06
2024-02-22T22:15:14.684Z,11.11
2024-02-22T22:17:42.040Z,11.14
2024-02-22T22:20:09.976Z,11.15
2024-02-22T22:22:37.414Z,11.18
2024-02-22T22:25:05.113Z,11.21
2024-02-22T22:27:35.308Z,11.26
2024-02-22T22:30:02.465Z,11.30
2024-02-22T22:32:29.982Z,11.29
2024-02-22T22:34:57.249Z,11.31
2024-02-22T22:37:24.492Z,11.32
2024-02-22T22:39:51.550Z,11.30
2024-02-22T22:42:18.987Z,11.32
2024-02-22T22:44:47.737Z,11.32
2024-02-22T22:47:15.029Z,11.31
2024-02-22T22:49:42.384Z,11.32
2024-02-22T22:52:11.017Z,11.33
2024-02-22T22:54:38.532Z,11.34
2024-02-22T22:57:05.683Z,11.33
2024-02-22T22:59:33.997Z,11.33
2024-02-22T23:02:01.341Z,11.35
2024-02-22T23:04:32.334Z,11.32
2024-02-22T23:06:59.448Z,11.30
2024-02-22T23:09:26.517Z,11.33
2024-02-22T23:11:53.889Z,11.33
2024-02-22T23:14:21.362Z,11.32
2024-02-22T23:16:49.069Z,11.31
2024-02-22T23:19:16.309Z,11.30
2024-02-22T23:21:43.540Z,11.30
2024-02-22T23:24:10.936Z,11.30
2024-02-22T23:26:41.086Z,11.29
2024-02-22T23:29:09.129Z,11.31
2024-02-22T23:31:37.076Z,11.33
2024-02-22T23:34:04.329Z,11.31
2024-02-22T23:36:32.363Z,11.30
2024-02-22T23:39:00.292Z,11.32
2024-02-22T23:41:30.054Z,11.33
2024-02-22T23:44:01.558Z,11.34
2024-02-22T23:46:29.722Z,11.34
2024-02-22T23:48:57.424Z,11.34
2024-02-22T23:51:24.742Z,11.33
2024-02-22T23:53:51.932Z,11.31
2024-02-22T23:56:19.281Z,11.29
2024-02-22T23:58:46.783Z,11.29
